Inicio METAR Ruta Wind Satelite

Informe Meteorológico

Fecha: 2021/09/21 15:52:38 Local
2021.09.21 20:52 UTC


Operación:
SKPS 212000Z 34006KT 9999 BKN025 BKN025 24/14 Q1018 RMK A3006 =